createdAt,value
2022-08-27T00:00:43.015Z,101623.72
2022-08-27T00:03:09.941Z,101620.88
2022-08-27T00:05:37.383Z,101613.56
2022-08-27T00:08:07.998Z,101613.56
2022-08-27T00:10:35.001Z,101622.03
2022-08-27T00:13:02.262Z,101620.03
2022-08-27T00:15:29.888Z,101620.03
2022-08-27T00:17:57.173Z,101611.59
2022-08-27T00:20:26.276Z,101611.59
2022-08-27T00:22:53.993Z,101601.44
2022-08-27T00:25:21.052Z,101603.13
2022-08-27T00:27:48.017Z,101603.97
2022-08-27T00:30:16.451Z,101602.28
2022-08-27T00:32:43.588Z,101600.63
2022-08-27T00:35:11.333Z,101609.09
2022-08-27T00:37:38.515Z,101607.09
2022-08-27T00:40:10.124Z,101597.47
2022-08-27T00:42:37.299Z,101595.81
2022-08-27T00:45:08.149Z,101591.00
2022-08-27T00:47:40.882Z,101596.97
2022-08-27T00:50:11.337Z,101589.34
2022-08-27T00:52:51.728Z,101590.69
2022-08-27T00:55:21.777Z,101587.34
2022-08-27T00:57:52.840Z,101585.34
2022-08-27T01:00:20.496Z,101589.22
2022-08-27T01:02:48.905Z,101589.00
2022-08-27T01:05:21.878Z,101578.88
2022-08-27T01:07:50.690Z,101584.50
2022-08-27T01:10:20.454Z,101587.34
2022-08-27T01:12:53.299Z,101583.72
2022-08-27T01:15:21.829Z,101582.03
2022-08-27T01:17:49.106Z,101582.88
2022-08-27T01:20:19.571Z,101588.50
2022-08-27T01:22:54.238Z,101580.03
2022-08-27T01:25:22.063Z,101586.28
2022-08-27T01:27:49.362Z,101585.69
2022-08-27T01:30:18.500Z,101584.84
2022-08-27T01:32:46.033Z,101586.84
2022-08-27T01:35:15.007Z,101587.13
2022-08-27T01:37:44.011Z,101590.78
2022-08-27T01:40:13.636Z,101588.81
2022-08-27T01:42:45.858Z,101584.00
2022-08-27T01:45:14.967Z,101579.22
2022-08-27T01:47:42.778Z,101580.88
2022-08-27T01:50:15.549Z,101588.81
2022-08-27T01:52:42.560Z,101583.47
2022-08-27T01:55:10.382Z,101577.31
2022-08-27T01:57:37.609Z,101580.16
2022-08-27T02:00:05.578Z,101577.31
2022-08-27T02:02:32.905Z,101579.00
2022-08-27T02:05:04.495Z,101572.00
2022-08-27T02:07:31.544Z,101579.81
2022-08-27T02:09:58.396Z,101574.81
2022-08-27T02:12:25.325Z,101582.44
2022-08-27T02:15:01.475Z,101580.75
2022-08-27T02:17:28.978Z,101581.59
2022-08-27T02:19:55.807Z,101588.06
2022-08-27T02:22:22.711Z,101585.59
2022-08-27T02:24:49.356Z,101581.09
2022-08-27T02:27:16.613Z,101583.06
2022-08-27T02:29:43.301Z,101583.06
2022-08-27T02:32:23.954Z,101584.75
2022-08-27T02:34:59.364Z,101583.06
2022-08-27T02:37:26.080Z,101588.41
2022-08-27T02:39:53.337Z,101583.06
2022-08-27T02:42:20.196Z,101584.75
2022-08-27T02:44:47.438Z,101584.75
2022-08-27T02:47:14.653Z,101593.50
2022-08-27T02:49:41.494Z,101591.53
2022-08-27T02:52:08.631Z,101593.50
2022-08-27T02:54:35.848Z,101588.72
2022-08-27T02:57:02.686Z,101592.38
2022-08-27T02:59:29.425Z,101588.72
2022-08-27T03:01:56.198Z,101578.56
2022-08-27T03:04:24.038Z,101584.75
2022-08-27T03:06:50.757Z,101585.88
2022-08-27T03:09:17.547Z,101588.72
2022-08-27T03:11:44.290Z,101589.84
2022-08-27T03:14:11.005Z,101589.00
2022-08-27T03:16:37.843Z,101586.19
2022-08-27T03:19:07.662Z,101579.72
2022-08-27T03:21:35.559Z,101578.88
2022-08-27T03:24:09.194Z,101585.66
2022-08-27T03:26:38.322Z,101582.00
2022-08-27T03:29:05.592Z,101581.69
2022-08-27T03:31:32.469Z,101584.50
2022-08-27T03:34:01.143Z,101580.84
2022-08-27T03:36:29.046Z,101573.22
2022-08-27T03:38:56.226Z,101575.50
2022-08-27T03:41:23.680Z,101567.91
2022-08-27T03:44:10.554Z,101569.88
2022-08-27T03:46:45.686Z,101575.22
2022-08-27T03:49:13.309Z,101566.22
2022-08-27T03:51:40.307Z,101580.31
2022-08-27T03:54:07.269Z,101579.47
2022-08-27T03:56:39.505Z,101587.94
2022-08-27T03:59:06.953Z,101584.28
2022-08-27T04:01:33.928Z,101585.41
2022-08-27T04:04:00.809Z,101582.59
2022-08-27T04:06:28.491Z,101579.16
2022-08-27T04:08:55.238Z,101582.59
2022-08-27T04:11:22.364Z,101582.28
2022-08-27T04:13:49.211Z,101586.25
2022-08-27T04:16:16.093Z,101588.25
2022-08-27T04:18:42.931Z,101576.88
2022-08-27T04:21:11.737Z,101576.97
2022-08-27T04:23:39.066Z,101581.47
2022-08-27T04:26:06.786Z,101585.41
2022-08-27T04:28:38.254Z,101586.59
2022-08-27T04:31:13.886Z,101590.25
2022-08-27T04:33:43.663Z,101583.78
2022-08-27T04:36:17.992Z,101576.97
2022-08-27T04:38:44.737Z,101582.94
2022-08-27T04:41:21.609Z,101582.09
2022-08-27T04:43:49.708Z,101578.13
2022-08-27T04:46:20.047Z,101587.44
2022-08-27T04:48:46.963Z,101582.41
2022-08-27T04:51:16.010Z,101588.56
2022-08-27T04:53:44.579Z,101588.56
2022-08-27T04:56:14.351Z,101582.09
2022-08-27T04:58:43.967Z,101588.25
2022-08-27T05:01:15.515Z,101591.41
2022-08-27T05:03:42.467Z,101590.56
2022-08-27T05:06:09.438Z,101593.38
2022-08-27T05:08:36.177Z,101599.53
2022-08-27T05:11:02.913Z,101600.47
2022-08-27T05:13:30.110Z,101604.94
2022-08-27T05:16:04.084Z,101602.47
2022-08-27T05:18:32.529Z,101595.78
2022-08-27T05:21:01.962Z,101598.47
2022-08-27T05:23:29.074Z,101600.78
2022-08-27T05:25:57.260Z,101601.63
2022-08-27T05:28:27.846Z,101603.91
2022-08-27T05:30:56.630Z,101611.22
2022-08-27T05:33:25.737Z,101613.84
2022-08-27T05:35:54.444Z,101609.88
2022-08-27T05:38:22.214Z,101613.22
2022-08-27T05:40:49.373Z,101614.06
2022-08-27T05:43:16.786Z,101618.84
2022-08-27T05:45:48.003Z,101616.88
2022-08-27T05:48:16.421Z,101617.38
2022-08-27T05:50:43.869Z,101612.38
2022-08-27T05:53:11.606Z,101618.00
2022-08-27T05:55:42.945Z,101616.03
2022-08-27T05:58:30.234Z,101629.00
2022-08-27T06:01:09.596Z,101621.97
2022-08-27T06:03:38.209Z,101620.53
2022-08-27T06:06:06.547Z,101620.84
2022-08-27T06:08:33.226Z,101611.88
2022-08-27T06:11:05.460Z,101617.50
2022-08-27T06:13:32.915Z,101623.44
2022-08-27T06:16:03.447Z,101625.97
2022-08-27T06:18:33.731Z,101621.16
2022-08-27T06:21:01.292Z,101624.28
2022-08-27T06:23:28.942Z,101626.25
2022-08-27T06:25:57.074Z,101628.78
2022-08-27T06:28:24.467Z,101633.59
2022-08-27T06:30:51.433Z,101636.69
2022-08-27T06:33:18.123Z,101631.59
2022-08-27T06:35:44.711Z,101624.59
2022-08-27T06:38:11.483Z,101633.88
2022-08-27T06:40:40.538Z,101634.41
2022-08-27T06:43:07.153Z,101634.72
2022-08-27T06:45:37.767Z,101634.41
2022-08-27T06:48:04.468Z,101630.75
2022-08-27T06:50:36.684Z,101622.09
2022-08-27T06:53:04.279Z,101635.84
2022-08-27T06:55:34.206Z,101639.81
2022-08-27T06:58:03.461Z,101639.00
2022-08-27T07:00:30.183Z,101638.19
2022-08-27T07:02:57.151Z,101638.19
2022-08-27T07:05:23.774Z,101642.13
2022-08-27T07:07:50.802Z,101641.50
2022-08-27T07:10:17.406Z,101643.47
2022-08-27T07:12:44.021Z,101656.13
2022-08-27T07:15:13.917Z,101649.44
2022-08-27T07:17:41.929Z,101648.63
2022-08-27T07:20:08.669Z,101656.75
2022-08-27T07:22:35.288Z,101663.53
2022-08-27T07:25:01.937Z,101656.75
2022-08-27T07:27:28.620Z,101658.75
2022-08-27T07:29:55.255Z,101659.88
2022-08-27T07:32:21.922Z,101662.38
2022-08-27T07:34:57.058Z,101667.22
2022-08-27T07:37:23.869Z,101659.06
2022-08-27T07:39:59.368Z,101661.56
2022-08-27T07:42:44.456Z,101677.03
2022-08-27T07:45:13.996Z,101666.03
2022-08-27T07:47:40.617Z,101668.84
2022-08-27T07:50:07.500Z,101669.50
2022-08-27T07:52:34.678Z,101679.41
2022-08-27T07:55:01.682Z,101668.66
2022-08-27T07:57:28.286Z,101675.44
2022-08-27T07:59:54.961Z,101675.44
2022-08-27T08:02:21.588Z,101682.22
2022-08-27T08:04:48.288Z,101679.94
2022-08-27T08:07:15.172Z,101680.22
2022-08-27T08:09:41.792Z,101679.41
2022-08-27T08:12:08.813Z,101688.69
2022-08-27T08:14:35.446Z,101685.06
2022-08-27T08:17:02.744Z,101688.69
2022-08-27T08:19:33.904Z,101686.19
2022-08-27T08:22:05.362Z,101693.19
2022-08-27T08:24:32.537Z,101688.69
2022-08-27T08:27:00.427Z,101694.03
2022-08-27T08:29:29.492Z,101695.50
2022-08-27T08:31:56.091Z,101699.16
2022-08-27T08:34:22.930Z,101694.09
2022-08-27T08:36:54.648Z,101691.63
2022-08-27T08:39:22.069Z,101694.31
2022-08-27T08:41:50.791Z,101696.84
2022-08-27T08:44:36.183Z,101689.44
2022-08-27T08:47:08.250Z,101693.19
2022-08-27T08:49:38.208Z,101692.88
2022-08-27T08:52:30.637Z,101696.00
2022-08-27T08:55:19.077Z,101694.56
2022-08-27T08:57:49.722Z,101693.72
2022-08-27T09:00:16.764Z,101692.88
2022-08-27T09:02:48.969Z,101697.69
2022-08-27T09:05:16.151Z,101699.66
2022-08-27T09:07:47.118Z,101693.31
2022-08-27T09:10:13.950Z,101697.38
2022-08-27T09:12:40.662Z,101691.97
2022-08-27T09:15:18.929Z,101701.47
2022-08-27T09:17:48.388Z,101704.50
2022-08-27T09:20:21.486Z,101697.81
2022-08-27T09:23:01.763Z,101708.59
2022-08-27T09:25:36.175Z,101701.25
2022-08-27T09:28:06.345Z,101697.81
2022-08-27T09:30:41.439Z,101704.78
2022-08-27T09:33:08.520Z,101701.47
2022-08-27T09:35:45.601Z,101698.66
2022-08-27T09:38:22.423Z,101705.97
2022-08-27T09:40:51.235Z,101699.16
2022-08-27T09:43:23.334Z,101698.03
2022-08-27T09:45:54.624Z,101692.09
2022-08-27T09:48:22.931Z,101695.75
2022-08-27T09:50:52.732Z,101702.22
2022-08-27T09:53:25.644Z,101693.75
2022-08-27T09:56:00.037Z,101687.78
2022-08-27T09:58:30.728Z,101689.16
2022-08-27T10:01:08.170Z,101690.84
2022-08-27T10:03:34.934Z,101690.56
2022-08-27T10:06:01.777Z,101692.53
2022-08-27T10:08:38.660Z,101693.06
2022-08-27T10:11:10.294Z,101688.47
2022-08-27T10:13:36.966Z,101684.81
2022-08-27T10:16:06.687Z,101689.03
2022-08-27T10:18:45.084Z,101680.03
2022-08-27T10:21:43.957Z,101681.38
2022-08-27T10:24:19.493Z,101688.38
2022-08-27T10:26:55.227Z,101677.94
2022-08-27T10:29:34.421Z,101683.59
2022-08-27T10:32:16.668Z,101679.09
2022-08-27T10:34:51.160Z,101679.09
2022-08-27T10:37:36.737Z,101686.31
2022-08-27T10:40:13.215Z,101682.31
2022-08-27T10:42:49.536Z,101675.75
2022-08-27T10:45:31.637Z,101671.88
2022-08-27T10:47:58.284Z,101676.69
2022-08-27T10:50:37.608Z,101673.03
2022-08-27T10:53:23.475Z,101669.69
2022-08-27T10:55:52.652Z,101665.63
2022-08-27T10:58:31.568Z,101670.44
2022-08-27T11:01:06.290Z,101671.19
2022-08-27T11:03:36.018Z,101670.63
2022-08-27T11:06:06.481Z,101663.66
2022-08-27T11:08:41.268Z,101671.28
2022-08-27T11:11:51.484Z,101668.44
2022-08-27T11:14:01.196Z,101674.41
2022-08-27T11:16:48.524Z,101674.41
2022-08-27T11:19:19.187Z,101671.56
2022-08-27T11:21:45.793Z,101672.13
2022-08-27T11:24:12.731Z,101670.44
2022-08-27T11:26:42.041Z,101664.69
2022-08-27T11:29:31.671Z,101660.50
2022-08-27T11:32:22.629Z,101664.47
2022-08-27T11:34:49.275Z,101663.66
2022-08-27T11:37:15.911Z,101663.31
2022-08-27T11:39:51.672Z,101659.66
2022-08-27T11:42:37.725Z,101659.66
2022-08-27T11:45:15.626Z,101656.00
2022-08-27T11:47:51.793Z,101654.53
2022-08-27T11:50:19.964Z,101656.44
2022-08-27T11:52:55.438Z,101652.13
2022-08-27T11:55:22.025Z,101646.50
2022-08-27T11:57:49.662Z,101646.81
2022-08-27T12:00:19.985Z,101654.44
2022-08-27T12:02:57.425Z,101662.91
2022-08-27T12:05:32.615Z,101656.63
2022-08-27T12:07:59.934Z,101659.16
2022-08-27T12:10:52.410Z,101653.41
2022-08-27T12:13:21.863Z,101653.91
2022-08-27T12:15:51.141Z,101651.94
2022-08-27T12:18:26.567Z,101651.63
2022-08-27T12:20:53.147Z,101660.59
2022-08-27T12:23:44.053Z,101656.63
2022-08-27T12:26:17.588Z,101652.47
2022-08-27T12:28:44.298Z,101656.44
2022-08-27T12:31:11.011Z,101663.75
2022-08-27T12:33:45.802Z,101656.63
2022-08-27T12:36:15.846Z,101650.69
2022-08-27T12:38:50.617Z,101661.22
2022-08-27T12:41:43.797Z,101650.13
2022-08-27T12:44:13.383Z,101652.13
2022-08-27T12:46:52.775Z,101650.13
2022-08-27T12:49:38.887Z,101642.81
2022-08-27T12:52:14.712Z,101639.19
2022-08-27T12:54:52.111Z,101650.13
2022-08-27T12:57:34.772Z,101642.81
2022-08-27T13:00:14.164Z,101643.03
2022-08-27T13:02:47.586Z,101647.84
2022-08-27T13:05:20.143Z,101643.03
2022-08-27T13:07:48.991Z,101642.19
2022-08-27T13:10:18.359Z,101638.22
2022-08-27T13:12:46.046Z,101628.59
2022-08-27T13:15:19.910Z,101633.09
2022-08-27T13:17:47.550Z,101632.78
2022-08-27T13:20:16.574Z,101629.13
2022-08-27T13:22:44.037Z,101621.16
2022-08-27T13:25:21.193Z,101623.97
2022-08-27T13:28:14.241Z,101625.66
2022-08-27T13:30:44.175Z,101622.81
2022-08-27T13:33:13.479Z,101627.31
2022-08-27T13:35:43.701Z,101606.41
2022-08-27T13:38:10.968Z,101610.13
2022-08-27T13:40:50.567Z,101603.81
2022-08-27T13:43:17.782Z,101614.81
2022-08-27T13:45:48.567Z,101615.31
2022-08-27T13:48:17.926Z,101619.28
2022-08-27T13:50:49.759Z,101618.47
2022-08-27T13:53:38.192Z,101619.81
2022-08-27T13:56:04.832Z,101622.94
2022-08-27T13:58:33.852Z,101623.28
2022-08-27T14:01:10.159Z,101617.63
2022-08-27T14:03:45.214Z,101612.81
2022-08-27T14:06:21.823Z,101607.19
2022-08-27T14:08:48.456Z,101610.81
2022-08-27T14:11:22.566Z,101615.66
2022-08-27T14:13:49.849Z,101609.66
2022-08-27T14:16:24.219Z,101617.00
2022-08-27T14:18:59.223Z,101619.50
2022-08-27T14:21:26.257Z,101611.34
2022-08-27T14:23:54.216Z,101615.00
2022-08-27T14:26:21.131Z,101608.50
2022-08-27T14:28:47.864Z,101615.00
2022-08-27T14:31:14.786Z,101613.63
2022-08-27T14:33:41.500Z,101615.31
2022-08-27T14:36:09.242Z,101611.66
2022-08-27T14:38:37.941Z,101607.69
2022-08-27T14:41:08.013Z,101610.19
2022-08-27T14:43:34.897Z,101613.84
2022-08-27T14:46:03.449Z,101617.53
2022-08-27T14:48:34.762Z,101608.72
2022-08-27T14:51:08.064Z,101611.22
2022-08-27T14:53:34.700Z,101614.34
2022-08-27T14:56:02.008Z,101613.50
2022-08-27T14:58:29.559Z,101607.88
2022-08-27T15:00:57.828Z,101616.88
2022-08-27T15:03:28.453Z,101613.50
2022-08-27T15:05:55.889Z,101616.88
2022-08-27T15:08:27.072Z,101618.03
2022-08-27T15:10:57.049Z,101605.56
2022-08-27T15:13:25.595Z,101602.75
2022-08-27T15:15:52.755Z,101612.38
2022-08-27T15:18:19.754Z,101598.25
2022-08-27T15:20:46.390Z,101609.53
2022-08-27T15:23:14.297Z,101613.75
2022-08-27T15:25:41.855Z,101607.56
2022-08-27T15:28:08.905Z,101616.34
2022-08-27T15:30:37.166Z,101613.50
2022-08-27T15:33:06.241Z,101607.88
2022-08-27T15:35:33.123Z,101606.22
2022-08-27T15:37:59.949Z,101611.88
2022-08-27T15:40:27.601Z,101605.88
2022-08-27T15:42:59.134Z,101615.19
2022-08-27T15:45:27.766Z,101601.91
2022-08-27T15:47:55.036Z,101604.75
2022-08-27T15:50:21.761Z,101606.91
2022-08-27T15:52:49.490Z,101606.06
2022-08-27T15:55:22.915Z,101598.78
2022-08-27T15:57:50.029Z,101608.91
2022-08-27T16:00:17.170Z,101606.59
2022-08-27T16:02:44.929Z,101603.78
2022-08-27T16:05:17.677Z,101609.13
2022-08-27T16:07:44.805Z,101609.97
2022-08-27T16:10:11.985Z,101604.31
2022-08-27T16:12:38.672Z,101611.09
2022-08-27T16:15:17.536Z,101610.28
2022-08-27T16:17:44.995Z,101617.59
2022-08-27T16:20:13.484Z,101614.78
2022-08-27T16:22:42.119Z,101610.78
2022-08-27T16:25:18.643Z,101610.78
2022-08-27T16:27:47.703Z,101613.94
2022-08-27T16:30:14.369Z,101609.13
2022-08-27T16:32:44.934Z,101608.28
2022-08-27T16:35:18.894Z,101604.31
2022-08-27T16:37:45.646Z,101620.41
2022-08-27T16:40:13.473Z,101615.09
2022-08-27T16:42:42.440Z,101609.44
2022-08-27T16:45:16.879Z,101615.09
2022-08-27T16:48:02.548Z,101611.41
2022-08-27T16:50:34.951Z,101601.59
2022-08-27T16:53:06.313Z,101612.91
2022-08-27T16:55:33.848Z,101606.06
2022-08-27T16:58:00.824Z,101611.22
2022-08-27T17:00:27.646Z,101601.59
2022-08-27T17:02:54.390Z,101596.78
2022-08-27T17:05:33.889Z,101593.13
2022-08-27T17:08:01.261Z,101599.94
2022-08-27T17:10:32.817Z,101609.25
2022-08-27T17:12:59.691Z,101607.56
2022-08-27T17:15:26.413Z,101604.75
2022-08-27T17:17:53.096Z,101605.88
2022-08-27T17:20:19.759Z,101612.38
2022-08-27T17:22:46.432Z,101613.22
2022-08-27T17:25:13.838Z,101625.34
2022-08-27T17:27:40.521Z,101615.19
2022-08-27T17:30:08.076Z,101632.16
2022-08-27T17:32:37.091Z,101619.16
2022-08-27T17:35:07.766Z,101622.00
2022-08-27T17:37:34.744Z,101630.47
2022-08-27T17:40:01.647Z,101640.91
2022-08-27T17:42:29.234Z,101624.81
2022-08-27T17:44:55.896Z,101642.94
2022-08-27T17:47:24.877Z,101633.94
2022-08-27T17:49:52.109Z,101639.28
2022-08-27T17:52:19.116Z,101644.91
2022-08-27T17:54:51.264Z,101646.91
2022-08-27T17:57:19.884Z,101650.88
2022-08-27T17:59:46.895Z,101655.69
2022-08-27T18:02:18.626Z,101646.38
2022-08-27T18:04:45.298Z,101651.19
2022-08-27T18:07:12.001Z,101645.53
2022-08-27T18:09:42.107Z,101659.66
2022-08-27T18:12:09.604Z,101672.94
2022-08-27T18:14:36.361Z,101665.63
2022-08-27T18:17:03.167Z,101663.66
2022-08-27T18:19:29.849Z,101670.44
2022-08-27T18:21:56.858Z,101669.59
2022-08-27T18:24:23.788Z,101677.53
2022-08-27T18:26:50.602Z,101676.41
2022-08-27T18:29:18.401Z,101669.59
2022-08-27T18:31:45.134Z,101680.06
2022-08-27T18:34:11.762Z,101676.41
2022-08-27T18:36:38.668Z,101683.19
2022-08-27T18:39:05.429Z,101681.56
2022-08-27T18:41:32.839Z,101689.19
2022-08-27T18:44:00.910Z,101688.31
2022-08-27T18:46:28.076Z,101690.28
2022-08-27T18:48:54.992Z,101695.94
2022-08-27T18:51:21.949Z,101703.56
2022-08-27T18:53:49.231Z,101704.41
2022-08-27T18:56:17.190Z,101708.06
2022-08-27T18:58:44.568Z,101708.94
2022-08-27T19:01:14.223Z,101710.38
2022-08-27T19:03:45.279Z,101714.31
2022-08-27T19:06:13.204Z,101720.81
2022-08-27T19:08:40.705Z,101717.16
2022-08-27T19:11:07.794Z,101721.28
2022-08-27T19:13:34.968Z,101728.97
2022-08-27T19:16:23.846Z,101732.44
2022-08-27T19:18:51.358Z,101730.75
2022-08-27T19:21:18.241Z,101741.22
2022-08-27T19:23:45.240Z,101741.22
2022-08-27T19:26:16.883Z,101751.38
2022-08-27T19:28:45.523Z,101740.38
2022-08-27T19:31:13.368Z,101745.53
2022-08-27T19:33:40.639Z,101752.50
2022-08-27T19:36:11.458Z,101748.00
2022-08-27T19:38:41.989Z,101745.53
2022-08-27T19:41:08.989Z,101753.66
2022-08-27T19:43:35.931Z,101751.97
2022-08-27T19:46:03.570Z,101755.13
2022-08-27T19:48:32.287Z,101757.13
2022-08-27T19:50:59.193Z,101758.78
2022-08-27T19:53:26.265Z,101760.44
2022-08-27T19:55:53.565Z,101761.63
2022-08-27T19:58:20.647Z,101760.25
2022-08-27T20:00:48.303Z,101766.72
2022-08-27T20:03:15.433Z,101767.03
2022-08-27T20:05:43.145Z,101774.69
2022-08-27T20:08:10.384Z,101775.00
2022-08-27T20:10:40.087Z,101774.34
2022-08-27T20:13:07.527Z,101776.69
2022-08-27T20:15:35.286Z,101785.16
2022-08-27T20:18:02.908Z,101781.78
2022-08-27T20:20:30.357Z,101778.97
2022-08-27T20:22:57.549Z,101783.75
2022-08-27T20:25:25.336Z,101786.28
2022-08-27T20:27:53.081Z,101784.59
2022-08-27T20:30:23.298Z,101781.78
2022-08-27T20:32:50.648Z,101793.06
2022-08-27T20:35:19.938Z,101794.22
2022-08-27T20:37:47.170Z,101792.56
2022-08-27T20:40:17.321Z,101784.09
2022-08-27T20:42:44.944Z,101795.69
2022-08-27T20:45:16.898Z,101797.38
2022-08-27T20:47:44.379Z,101801.34
2022-08-27T20:50:13.321Z,101796.19
2022-08-27T20:52:41.003Z,101796.53
2022-08-27T20:55:16.368Z,101792.31
2022-08-27T20:58:06.806Z,101804.78
2022-08-27T21:00:35.058Z,101809.59
2022-08-27T21:03:02.027Z,101805.94
2022-08-27T21:05:31.929Z,101806.22
2022-08-27T21:07:58.831Z,101811.59
2022-08-27T21:10:25.681Z,101814.63
2022-08-27T21:12:52.531Z,101819.22
2022-08-27T21:15:20.915Z,101815.53
2022-08-27T21:17:48.231Z,101811.59
2022-08-27T21:20:15.747Z,101815.53
2022-08-27T21:22:43.318Z,101818.06
2022-08-27T21:25:15.765Z,101825.16
2022-08-27T21:27:42.975Z,101825.16
2022-08-27T21:30:11.394Z,101821.81
2022-08-27T21:32:38.303Z,101820.13
2022-08-27T21:35:12.364Z,101819.84
2022-08-27T21:37:39.695Z,101826.00
2022-08-27T21:40:07.106Z,101825.47
2022-08-27T21:42:34.640Z,101820.97
2022-08-27T21:45:01.729Z,101827.47
2022-08-27T21:47:30.247Z,101827.47
2022-08-27T21:49:56.954Z,101826.09
2022-08-27T21:52:24.118Z,101821.28
2022-08-27T21:54:50.805Z,101828.06
2022-08-27T21:57:17.759Z,101825.25
2022-08-27T21:59:46.078Z,101829.75
2022-08-27T22:02:38.089Z,101827.22
2022-08-27T22:05:01.081Z,101832.28
2022-08-27T22:07:28.344Z,101831.72
2022-08-27T22:09:55.478Z,101832.88
2022-08-27T22:12:22.294Z,101836.03
2022-08-27T22:14:49.092Z,101839.13
2022-08-27T22:17:16.017Z,101841.13
2022-08-27T22:19:42.874Z,101839.13
2022-08-27T22:22:09.727Z,101843.94
2022-08-27T22:24:36.484Z,101845.09
2022-08-27T22:27:03.195Z,101850.44
2022-08-27T22:29:30.615Z,101847.09
2022-08-27T22:31:57.501Z,101852.75
2022-08-27T22:34:24.163Z,101847.09
2022-08-27T22:36:50.853Z,101845.41
2022-08-27T22:39:17.615Z,101849.38
2022-08-27T22:41:45.774Z,101841.75
2022-08-27T22:44:15.538Z,101849.38
2022-08-27T22:46:42.739Z,101855.03
2022-08-27T22:49:09.705Z,101848.53
2022-08-27T22:51:36.553Z,101850.22
2022-08-27T22:54:03.265Z,101846.84
2022-08-27T22:56:29.940Z,101847.09
2022-08-27T22:58:56.938Z,101846.78
2022-08-27T23:01:24.862Z,101846.25
2022-08-27T23:03:52.042Z,101848.25
2022-08-27T23:06:19.884Z,101856.72
2022-08-27T23:08:46.650Z,101854.72
2022-08-27T23:11:13.581Z,101851.34
2022-08-27T23:13:40.834Z,101852.19
2022-08-27T23:16:09.907Z,101852.75
2022-08-27T23:18:37.330Z,101858.97
2022-08-27T23:21:06.143Z,101861.28
2022-08-27T23:23:33.455Z,101863.78
2022-08-27T23:26:18.410Z,101870.81
2022-08-27T23:28:45.693Z,101866.59
2022-08-27T23:31:13.194Z,101866.09
2022-08-27T23:33:40.224Z,101866.94
2022-08-27T23:36:07.394Z,101867.78
2022-08-27T23:38:34.575Z,101872.03
2022-08-27T23:41:01.418Z,101872.03
2022-08-27T23:43:28.257Z,101873.19
2022-08-27T23:45:54.881Z,101869.50
2022-08-27T23:48:21.649Z,101869.50
2022-08-27T23:50:48.366Z,101867.03
2022-08-27T23:53:15.173Z,101870.34
2022-08-27T23:55:42.072Z,101864.19
2022-08-27T23:58:09.395Z,101869.84
